Time;durP1;ratioP1;P1;durP2;ratioP2;P2;SDS_P1;SDS_P2;PMS_P1;PMS_P2;Temp;Humidity;BMP_temperature;BMP_pressure;BME280_temperature;BME280_humidity;BME280_pressure;Samples;Min_cycle;Max_cycle;Signal;HPM_P1;HPM_P2
2022/02/06 00:00:59;;;;;;;184.83;56.27;;;4.10;92.80;;;;;;5037167;28;20263;-68
2022/02/06 00:03:27;;;;;;;168.13;50.77;;;4.10;92.50;;;;;;5046354;28;20203;-68
2022/02/06 00:05:54;;;;;;;123.63;49.13;;;4.00;92.10;;;;;;5025469;28;20210;-68
2022/02/06 00:08:21;;;;;;;226.73;55.33;;;4.00;92.00;;;;;;5046838;28;20210;-68
2022/02/06 00:10:48;;;;;;;122.77;48.57;;;3.90;92.30;;;;;;5035735;28;20223;-68
2022/02/06 00:13:16;;;;;;;144.03;49.47;;;3.80;92.50;;;;;;5042589;28;20735;-68
2022/02/06 00:15:43;;;;;;;179.33;52.43;;;3.80;92.70;;;;;;5037510;28;20637;-68
2022/02/06 00:18:10;;;;;;;122.77;49.47;;;3.80;92.90;;;;;;5029138;28;20200;-68
2022/02/06 00:20:54;;;;;;;108.07;48.40;;;3.80;93.10;;;;;;5039776;28;20536;-68
2022/02/06 00:23:24;;;;;;;106.97;46.43;;;3.80;93.20;;;;;;5037258;28;20207;-68
2022/02/06 00:26:11;;;;;;;119.13;49.13;;;3.80;93.20;;;;;;5046959;28;20214;-68
2022/02/06 00:28:44;;;;;;;76.83;45.70;;;3.80;93.30;;;;;;5046615;28;20654;-68
2022/02/06 00:31:32;;;;;;;84.93;42.27;;;3.80;93.20;;;;;;5049180;28;20207;-68
2022/02/06 00:39:47;;;;;;;84.97;44.60;;;3.80;92.90;;;;;;5040733;28;20203;-68
2022/02/06 00:42:14;;;;;;;75.90;37.43;;;3.80;92.80;;;;;;5043692;28;20200;-68
2022/02/06 00:44:41;;;;;;;51.93;34.63;;;3.80;92.80;;;;;;5037998;28;20208;-68
2022/02/06 00:47:08;;;;;;;65.53;40.03;;;3.70;92.80;;;;;;5043221;28;20200;-68
2022/02/06 00:49:36;;;;;;;53.67;37.70;;;3.80;93.00;;;;;;5040777;28;20208;-68
2022/02/06 00:52:10;;;;;;;56.37;38.57;;;3.80;93.00;;;;;;5047254;28;20234;-68
2022/02/06 00:54:37;;;;;;;62.00;40.73;;;3.80;92.90;;;;;;5040383;28;20507;-68
2022/02/06 00:57:06;;;;;;;53.87;38.40;;;3.80;92.70;;;;;;5041876;28;20195;-68
2022/02/06 00:59:33;;;;;;;57.90;37.93;;;3.80;92.80;;;;;;5044037;28;20211;-68
2022/02/06 01:02:00;;;;;;;56.03;39.10;;;3.80;92.80;;;;;;5044520;28;20208;-68
2022/02/06 01:04:33;;;;;;;48.73;36.83;;;3.90;92.80;;;;;;5043595;28;20199;-68
2022/02/06 01:07:03;;;;;;;50.77;36.73;;;3.90;92.80;;;;;;5043096;28;20206;-68
2022/02/06 01:09:30;;;;;;;52.77;36.67;;;3.90;92.80;;;;;;5046004;28;20200;-68
2022/02/06 01:11:57;;;;;;;52.23;38.07;;;4.00;92.80;;;;;;5042327;28;20257;-68
2022/02/06 01:17:15;;;;;;;52.90;39.63;;;4.10;92.90;;;;;;5041837;28;20203;-68
2022/02/06 01:20:04;;;;;;;56.50;38.80;;;4.10;92.90;;;;;;5051501;28;20677;-68
2022/02/06 01:22:34;;;;;;;56.93;40.10;;;4.20;92.90;;;;;;5043361;28;20256;-68
2022/02/06 01:25:09;;;;;;;60.60;42.40;;;4.20;92.90;;;;;;5043926;28;20230;-68
2022/02/06 01:30:15;;;;;;;67.73;44.53;;;4.30;93.00;;;;;;5043291;28;20626;-68
2022/02/06 01:32:52;;;;;;;63.20;42.27;;;4.30;93.00;;;;;;5042441;28;20555;-68
2022/02/06 01:35:29;;;;;;;65.17;43.40;;;4.40;93.00;;;;;;5045499;28;20205;-68
2022/02/06 01:43:17;;;;;;;88.53;47.60;;;4.50;93.20;;;;;;5040301;28;20282;-68
2022/02/06 01:46:20;;;;;;;66.10;45.37;;;4.50;93.20;;;;;;5039912;28;20201;-68
2022/02/06 02:43:37;;;;;;;89.27;50.93;;;5.40;93.60;;;;;;5050083;28;20303;-68
2022/02/06 02:46:04;;;;;;;86.50;50.53;;;5.50;93.70;;;;;;5042647;28;20217;-68
2022/02/06 02:48:31;;;;;;;83.23;50.67;;;5.60;93.70;;;;;;5041103;28;20669;-68
2022/02/06 02:51:04;;;;;;;80.07;46.37;;;5.60;93.70;;;;;;5035578;28;20218;-68
2022/02/06 02:53:45;;;;;;;76.07;46.10;;;5.60;93.70;;;;;;5039252;28;20228;-68
2022/02/06 03:01:25;;;;;;;92.27;52.57;;;5.70;93.80;;;;;;5044415;28;20206;-68
2022/02/06 03:03:53;;;;;;;94.83;53.40;;;5.70;93.80;;;;;;5041833;28;20215;-68
2022/02/06 03:06:20;;;;;;;91.13;54.20;;;5.80;93.90;;;;;;5039386;28;20720;-68
2022/02/06 03:08:48;;;;;;;86.57;51.20;;;5.80;93.90;;;;;;5044449;28;20225;-68
2022/02/06 03:11:16;;;;;;;83.77;50.87;;;5.90;94.00;;;;;;5044334;28;20201;-68
2022/02/06 03:16:25;;;;;;;86.00;48.90;;;5.90;94.00;;;;;;5042250;28;20586;-68
2022/02/06 03:18:59;;;;;;;89.17;50.53;;;6.00;94.00;;;;;;5044236;28;20206;-68
2022/02/06 03:21:29;;;;;;;87.17;53.77;;;6.00;93.90;;;;;;5049933;28;20242;-68
2022/02/06 03:24:06;;;;;;;98.17;56.73;;;6.00;93.90;;;;;;5042666;28;20203;-68
2022/02/06 03:26:33;;;;;;;94.03;53.90;;;6.00;93.90;;;;;;5031626;28;20623;-68
2022/02/06 03:29:00;;;;;;;88.80;53.07;;;6.10;93.90;;;;;;5044994;28;20264;-68
2022/02/06 03:31:27;;;;;;;89.10;53.60;;;6.10;94.20;;;;;;5041331;28;20208;-68
2022/02/06 03:33:54;;;;;;;82.07;51.47;;;6.10;93.90;;;;;;5043184;28;20565;-68
2022/02/06 03:36:21;;;;;;;91.13;51.70;;;6.10;93.90;;;;;;5044568;28;20649;-68
2022/02/06 03:38:51;;;;;;;87.80;56.10;;;6.10;93.90;;;;;;5049017;28;20217;-68
2022/02/06 03:41:19;;;;;;;98.10;56.40;;;6.20;93.90;;;;;;5043758;28;20209;-68
2022/02/06 03:46:28;;;;;;;91.50;54.07;;;6.20;93.90;;;;;;5041560;28;20235;-68
2022/02/06 03:51:37;;;;;;;94.23;57.47;;;6.20;93.90;;;;;;5040755;28;20207;-68
2022/02/06 03:54:07;;;;;;;96.93;56.63;;;6.20;93.90;;;;;;5041693;28;20224;-68
2022/02/06 03:56:35;;;;;;;105.77;62.23;;;6.30;93.90;;;;;;5034831;28;20210;-68
2022/02/06 03:59:03;;;;;;;102.73;60.13;;;6.30;93.90;;;;;;5043126;28;20774;-68
2022/02/06 04:01:31;;;;;;;100.53;59.07;;;6.40;93.90;;;;;;5038736;28;20209;-68
2022/02/06 04:03:58;;;;;;;108.67;61.20;;;6.30;93.90;;;;;;5043543;28;20279;-68
2022/02/06 04:06:27;;;;;;;111.43;61.23;;;6.40;93.90;;;;;;5042815;28;20214;-68
2022/02/06 04:08:58;;;;;;;113.90;62.00;;;6.40;93.90;;;;;;5039734;28;20213;-68
2022/02/06 04:11:44;;;;;;;110.00;60.47;;;6.40;93.90;;;;;;5049344;28;20228;-68
2022/02/06 04:14:28;;;;;;;114.93;63.90;;;6.40;93.90;;;;;;5042269;28;20233;-68
2022/02/06 04:16:59;;;;;;;109.10;63.43;;;6.40;93.90;;;;;;5043822;28;20227;-68
2022/02/06 04:19:27;;;;;;;111.77;62.10;;;6.40;93.90;;;;;;5045105;28;20645;-68
2022/02/06 04:21:56;;;;;;;110.50;63.03;;;6.50;94.00;;;;;;5053367;28;20665;-68
2022/02/06 04:24:24;;;;;;;108.87;61.47;;;6.50;94.00;;;;;;5042693;28;20230;-68
2022/02/06 04:26:53;;;;;;;105.23;62.80;;;6.50;94.00;;;;;;5045155;28;20216;-68
2022/02/06 04:29:21;;;;;;;114.73;63.53;;;6.50;94.00;;;;;;5045941;28;20206;-68
2022/02/06 04:31:50;;;;;;;110.80;63.73;;;6.50;94.00;;;;;;5043639;28;20296;-68
2022/02/06 04:34:23;;;;;;;113.03;62.20;;;6.50;94.20;;;;;;5043610;28;20304;-68
2022/02/06 04:37:00;;;;;;;110.03;62.33;;;6.60;94.00;;;;;;5043341;28;20208;-68
2022/02/06 04:42:28;;;;;;;103.50;62.43;;;6.60;94.00;;;;;;5042459;28;20206;-68
2022/02/06 05:15:34;;;;;;;112.20;61.70;;;6.60;93.90;;;;;;5046564;28;20216;-68
2022/02/06 05:23:38;;;;;;;111.37;62.10;;;6.70;93.90;;;;;;5059149;28;20232;-68
2022/02/06 05:29:05;;;;;;;113.57;60.97;;;6.70;94.00;;;;;;5047413;28;20228;-68
2022/02/06 05:31:59;;;;;;;106.93;59.30;;;6.70;94.00;;;;;;5046683;28;20626;-68
2022/02/06 05:34:26;;;;;;;110.90;60.90;;;6.70;94.00;;;;;;5056437;28;20565;-68
2022/02/06 05:36:54;;;;;;;105.23;60.13;;;6.70;94.00;;;;;;5044554;28;20221;-68
2022/02/06 05:39:21;;;;;;;110.63;61.97;;;6.70;94.00;;;;;;5042955;28;20285;-68
2022/02/06 05:41:48;;;;;;;106.17;58.30;;;6.70;94.00;;;;;;5041995;28;20231;-68
2022/02/06 05:44:15;;;;;;;116.63;62.87;;;6.70;94.30;;;;;;5042620;28;20210;-68
2022/02/06 05:46:42;;;;;;;105.90;61.60;;;6.70;94.00;;;;;;5046272;28;20210;-68
2022/02/06 05:49:11;;;;;;;113.53;59.70;;;6.80;94.00;;;;;;5048258;28;20208;-68
2022/02/06 05:51:39;;;;;;;114.40;63.60;;;6.80;94.00;;;;;;5049488;28;20268;-68
2022/02/06 05:54:07;;;;;;;114.63;61.60;;;6.80;94.00;;;;;;5041522;28;20569;-68
2022/02/06 05:56:34;;;;;;;112.67;60.80;;;6.80;94.00;;;;;;5041003;28;20629;-68
2022/02/06 05:59:02;;;;;;;116.67;63.67;;;6.80;94.00;;;;;;5039691;28;20206;-68
2022/02/06 06:01:30;;;;;;;125.53;66.83;;;6.80;94.00;;;;;;5046280;28;20205;-68
2022/02/06 06:03:57;;;;;;;114.77;62.80;;;6.80;94.00;;;;;;5045961;28;20618;-68
2022/02/06 06:06:24;;;;;;;117.23;61.90;;;6.80;94.00;;;;;;5043267;28;20288;-68
2022/02/06 06:08:51;;;;;;;128.93;65.20;;;6.80;94.00;;;;;;5046398;28;20206;-68
2022/02/06 06:11:19;;;;;;;128.43;65.33;;;6.80;94.00;;;;;;5054067;28;20232;-68
2022/02/06 06:13:46;;;;;;;119.00;66.03;;;6.80;94.00;;;;;;5039787;28;20590;-68
2022/02/06 06:16:13;;;;;;;125.63;65.23;;;6.90;94.10;;;;;;5044402;28;20296;-68
2022/02/06 06:18:40;;;;;;;132.53;65.00;;;6.90;94.00;;;;;;5045033;28;20243;-68
2022/02/06 06:21:07;;;;;;;134.87;67.50;;;6.90;94.00;;;;;;5044389;28;20206;-68
2022/02/06 06:23:42;;;;;;;133.27;66.83;;;6.90;94.00;;;;;;5045756;28;20263;-68
2022/02/06 06:26:14;;;;;;;137.93;66.70;;;6.90;94.00;;;;;;5040429;28;20224;-68
2022/02/06 06:28:41;;;;;;;135.37;66.40;;;6.90;94.00;;;;;;5042535;28;20717;-68
2022/02/06 06:31:08;;;;;;;126.37;63.93;;;6.90;94.00;;;;;;5044475;28;20263;-68
2022/02/06 06:33:35;;;;;;;131.67;64.60;;;6.90;94.00;;;;;;5038250;28;20246;-68
2022/02/06 06:36:04;;;;;;;132.43;65.10;;;6.90;94.00;;;;;;5044481;28;20210;-68
2022/02/06 06:38:35;;;;;;;136.70;65.83;;;6.90;94.00;;;;;;5043548;28;20316;-68
2022/02/06 06:41:04;;;;;;;132.73;65.60;;;6.90;94.00;;;;;;5041740;28;20207;-68
2022/02/06 06:43:31;;;;;;;131.37;64.53;;;7.00;94.00;;;;;;5044514;28;20219;-68
2022/02/06 06:45:58;;;;;;;122.27;65.57;;;6.90;94.00;;;;;;5043415;28;20209;-68
2022/02/06 06:48:26;;;;;;;131.63;65.70;;;7.00;94.00;;;;;;5043014;28;20216;-68
2022/02/06 06:50:53;;;;;;;135.17;66.33;;;7.00;94.00;;;;;;5042101;28;20245;-68
2022/02/06 06:53:20;;;;;;;122.97;64.40;;;7.00;94.00;;;;;;5048790;28;20215;-68
2022/02/06 06:55:55;;;;;;;133.43;66.03;;;7.00;94.00;;;;;;5051238;28;20213;-68
2022/02/06 06:58:28;;;;;;;129.60;64.70;;;7.10;94.00;;;;;;5038182;28;20534;-68
2022/02/06 07:03:27;;;;;;;118.30;64.73;;;7.10;94.00;;;;;;5041448;28;20696;-68
2022/02/06 07:05:54;;;;;;;134.97;66.57;;;7.10;94.00;;;;;;5043699;28;20634;-68
2022/02/06 07:08:21;;;;;;;126.53;63.73;;;7.10;94.00;;;;;;5044311;28;20231;-68
2022/02/06 07:10:49;;;;;;;116.03;63.80;;;7.10;94.00;;;;;;5044352;28;20206;-68
2022/02/06 07:13:21;;;;;;;127.87;67.60;;;7.10;94.00;;;;;;5042628;28;20218;-68
2022/02/06 07:15:49;;;;;;;120.20;64.27;;;7.20;94.00;;;;;;5041007;28;20620;-68
2022/02/06 07:18:16;;;;;;;123.13;64.20;;;7.20;94.00;;;;;;5039943;28;20255;-68
2022/02/06 07:20:43;;;;;;;130.97;64.20;;;7.20;94.00;;;;;;5043058;28;20363;-68
2022/02/06 07:23:10;;;;;;;126.47;65.50;;;7.20;94.00;;;;;;5040994;28;20241;-68
2022/02/06 07:25:40;;;;;;;117.20;64.93;;;7.20;94.00;;;;;;5041692;28;20214;-68
2022/02/06 07:28:14;;;;;;;125.10;67.37;;;7.20;94.00;;;;;;5042196;28;20198;-68
2022/02/06 07:30:43;;;;;;;119.07;64.97;;;7.20;94.00;;;;;;5041574;28;20653;-68
2022/02/06 07:33:12;;;;;;;122.17;63.10;;;7.20;94.00;;;;;;5041489;28;20198;-68
2022/02/06 07:35:39;;;;;;;111.60;65.50;;;7.20;94.00;;;;;;5051434;28;20299;-68
2022/02/06 07:38:07;;;;;;;115.27;64.43;;;7.30;94.00;;;;;;5043885;28;20577;-68
2022/02/06 07:40:35;;;;;;;120.33;65.83;;;7.30;94.00;;;;;;5048217;28;20202;-68
2022/02/06 07:43:02;;;;;;;125.23;66.03;;;7.30;94.00;;;;;;5053382;28;20205;-68
2022/02/06 07:45:37;;;;;;;113.83;63.93;;;7.30;93.90;;;;;;5052588;28;20550;-68
2022/02/06 07:48:07;;;;;;;109.90;61.87;;;7.30;93.90;;;;;;5044393;28;20523;-68
2022/02/06 07:50:34;;;;;;;112.43;63.43;;;7.40;94.00;;;;;;5054039;28;20220;-68
2022/02/06 07:53:01;;;;;;;115.73;63.57;;;7.30;93.90;;;;;;5044487;28;20213;-68
2022/02/06 07:55:28;;;;;;;122.50;64.53;;;7.40;94.00;;;;;;5041539;28;20233;-68
2022/02/06 07:57:56;;;;;;;111.93;62.13;;;7.40;93.90;;;;;;5045090;28;20622;-68
2022/02/06 08:00:23;;;;;;;113.87;62.40;;;7.40;93.90;;;;;;5045199;28;20195;-68
2022/02/06 08:02:50;;;;;;;116.13;64.63;;;7.40;93.90;;;;;;5056622;28;20301;-68
2022/02/06 08:05:18;;;;;;;110.33;64.47;;;7.50;93.90;;;;;;5041990;28;20243;-68
2022/02/06 08:07:47;;;;;;;127.97;64.30;;;7.50;93.90;;;;;;5041218;28;20218;-68
2022/02/06 08:10:17;;;;;;;112.57;62.90;;;7.50;93.80;;;;;;5026297;28;20221;-68
2022/02/06 08:12:52;;;;;;;124.80;67.23;;;7.50;93.80;;;;;;5047914;28;20201;-68
2022/02/06 08:15:19;;;;;;;121.00;63.57;;;7.50;93.80;;;;;;5052804;28;20680;-68
2022/02/06 08:17:46;;;;;;;122.20;67.47;;;7.50;93.80;;;;;;5052464;28;20210;-68
2022/02/06 08:20:15;;;;;;;115.73;65.20;;;7.60;93.80;;;;;;5040216;28;20272;-68
2022/02/06 08:22:44;;;;;;;117.27;65.47;;;7.60;93.80;;;;;;5044753;28;20242;-68
2022/02/06 08:25:13;;;;;;;124.67;66.83;;;7.60;93.80;;;;;;5048665;28;20650;-68
2022/02/06 08:27:40;;;;;;;114.83;65.50;;;7.60;93.70;;;;;;5043279;28;20214;-68
2022/02/06 08:30:09;;;;;;;124.77;68.70;;;7.70;93.80;;;;;;5042878;28;20289;-68
2022/02/06 08:32:36;;;;;;;121.90;67.80;;;7.70;93.70;;;;;;5054934;28;20676;-68
2022/02/06 08:35:06;;;;;;;118.17;65.93;;;7.70;93.70;;;;;;5054657;28;20228;-68
2022/02/06 08:37:34;;;;;;;119.07;65.73;;;7.70;94.00;;;;;;5045965;28;20631;-68
2022/02/06 08:40:07;;;;;;;135.87;68.40;;;7.80;93.70;;;;;;5042799;28;20210;-68
2022/02/06 08:42:34;;;;;;;126.57;68.20;;;7.80;93.70;;;;;;5038683;28;20217;-68
2022/02/06 08:45:01;;;;;;;115.27;66.20;;;7.80;93.70;;;;;;5045538;28;20216;-68
2022/02/06 08:47:28;;;;;;;127.73;67.83;;;7.90;93.70;;;;;;5053870;28;20297;-68
2022/02/06 08:49:56;;;;;;;123.13;68.37;;;7.90;94.00;;;;;;5041922;28;20289;-68
2022/02/06 08:52:23;;;;;;;120.30;69.07;;;7.90;93.60;;;;;;5047729;28;20214;-68
2022/02/06 08:54:50;;;;;;;119.23;69.17;;;8.00;93.60;;;;;;5053385;28;20223;-68
2022/02/06 08:57:27;;;;;;;112.63;65.77;;;8.00;93.60;;;;;;5044168;28;20217;-68
2022/02/06 08:59:55;;;;;;;117.43;64.17;;;8.00;93.60;;;;;;5043352;28;20207;-68
2022/02/06 09:02:24;;;;;;;135.27;68.13;;;8.00;93.60;;;;;;5045154;28;20260;-68
2022/02/06 09:04:51;;;;;;;120.07;67.40;;;8.00;93.60;;;;;;5047897;28;20206;-68
2022/02/06 09:07:20;;;;;;;118.33;66.90;;;8.10;93.60;;;;;;5050952;28;20637;-68
2022/02/06 09:09:54;;;;;;;116.00;63.60;;;8.10;93.60;;;;;;5044460;28;20238;-68
2022/02/06 09:12:22;;;;;;;107.87;65.43;;;8.10;93.60;;;;;;5050716;28;20215;-68
2022/02/06 09:14:50;;;;;;;114.17;65.47;;;8.10;93.60;;;;;;5047961;28;20222;-68
2022/02/06 09:17:17;;;;;;;113.93;62.57;;;8.10;93.60;;;;;;5045670;28;20199;-68
2022/02/06 09:19:44;;;;;;;111.17;63.70;;;8.20;93.60;;;;;;5047467;28;20206;-68
2022/02/06 09:22:13;;;;;;;114.47;64.17;;;8.20;93.50;;;;;;5045009;28;20235;-68
2022/02/06 09:24:41;;;;;;;114.13;62.83;;;8.20;93.80;;;;;;5048435;28;20202;-68
2022/02/06 09:27:10;;;;;;;112.70;62.50;;;8.20;93.50;;;;;;5039545;28;20261;-68
2022/02/06 09:29:38;;;;;;;114.27;62.70;;;8.20;93.50;;;;;;5045868;28;20202;-68
2022/02/06 09:37:24;;;;;;;105.57;61.07;;;8.30;93.50;;;;;;5043415;28;20203;-68
2022/02/06 09:39:52;;;;;;;102.30;59.43;;;8.30;93.40;;;;;;5043944;28;20203;-68
2022/02/06 09:42:20;;;;;;;113.17;63.10;;;8.30;93.40;;;;;;5043232;28;20260;-68
2022/02/06 09:44:48;;;;;;;117.27;64.47;;;8.30;93.40;;;;;;5043202;28;20314;-68
2022/02/06 09:47:28;;;;;;;114.40;62.73;;;8.30;93.40;;;;;;5052129;28;20206;-68
2022/02/06 09:49:55;;;;;;;96.60;57.03;;;8.40;93.40;;;;;;5047863;28;20220;-68
2022/02/06 09:52:28;;;;;;;107.37;62.37;;;8.40;93.40;;;;;;5046298;28;20211;-68
2022/02/06 09:55:08;;;;;;;106.00;59.97;;;8.40;93.40;;;;;;5040933;28;20230;-68
2022/02/06 09:57:52;;;;;;;108.77;62.50;;;8.40;93.30;;;;;;5043611;28;20535;-68
2022/02/06 10:00:21;;;;;;;108.90;61.33;;;8.40;93.30;;;;;;5048381;28;20207;-68
2022/02/06 10:02:52;;;;;;;111.40;61.80;;;8.50;93.30;;;;;;5044954;28;20210;-68
2022/02/06 10:05:20;;;;;;;125.90;66.10;;;8.50;93.40;;;;;;5040845;28;20199;-68
2022/02/06 10:07:59;;;;;;;129.97;69.93;;;8.50;93.30;;;;;;5041119;28;20294;-68
2022/02/06 10:10:27;;;;;;;127.97;70.57;;;8.50;93.30;;;;;;5039445;28;20639;-68
2022/02/06 10:13:00;;;;;;;142.17;72.97;;;8.60;93.30;;;;;;5043501;28;20207;-68
2022/02/06 10:15:27;;;;;;;136.63;75.50;;;8.60;93.30;;;;;;5041377;28;20226;-69
2022/02/06 10:17:54;;;;;;;133.53;72.73;;;8.60;93.30;;;;;;5041916;28;20229;-68
2022/02/06 10:20:31;;;;;;;124.07;70.80;;;8.60;93.30;;;;;;5041779;28;20206;-68
2022/02/06 10:23:05;;;;;;;132.13;70.13;;;8.70;93.60;;;;;;5041704;28;20276;-68
2022/02/06 10:25:43;;;;;;;130.57;72.87;;;8.70;93.20;;;;;;5040881;28;20210;-68
2022/02/06 10:28:33;;;;;;;129.93;67.33;;;8.70;93.20;;;;;;5041265;28;20206;-68
2022/02/06 10:31:01;;;;;;;130.10;69.53;;;8.70;93.20;;;;;;5040507;28;20207;-68
2022/02/06 10:33:47;;;;;;;133.00;71.67;;;8.70;93.20;;;;;;5043621;28;20601;-68
2022/02/06 10:36:21;;;;;;;129.10;71.93;;;8.80;93.20;;;;;;5040076;28;20313;-68
2022/02/06 10:38:58;;;;;;;122.33;67.43;;;8.80;93.20;;;;;;5049842;28;20277;-68
2022/02/06 10:41:26;;;;;;;125.30;66.07;;;8.80;93.20;;;;;;5043108;28;20654;-68
2022/02/06 10:43:58;;;;;;;135.67;71.47;;;8.80;93.20;;;;;;5039551;28;20631;-68
2022/02/06 10:46:27;;;;;;;129.07;68.57;;;8.80;93.20;;;;;;5044836;28;20269;-68
2022/02/06 10:48:56;;;;;;;125.83;67.37;;;8.90;93.20;;;;;;5039953;28;20290;-68
2022/02/06 10:51:58;;;;;;;122.33;69.97;;;8.90;93.20;;;;;;5043328;28;20622;-68
2022/02/06 10:54:28;;;;;;;140.20;70.07;;;8.90;93.20;;;;;;5040905;28;20651;-68
2022/02/06 10:57:16;;;;;;;126.63;67.70;;;9.00;93.20;;;;;;5052130;28;20210;-68
2022/02/06 10:59:46;;;;;;;130.00;66.43;;;9.00;93.20;;;;;;5050728;28;20214;-68
2022/02/06 11:02:20;;;;;;;116.37;59.10;;;9.10;93.20;;;;;;5018286;28;20210;-68
2022/02/06 11:05:19;;;;;;;117.23;61.90;;;9.20;93.20;;;;;;5043220;28;20228;-68
2022/02/06 11:07:54;;;;;;;122.20;65.93;;;9.20;93.20;;;;;;5043980;28;20229;-68
2022/02/06 11:10:23;;;;;;;113.27;64.77;;;9.30;93.20;;;;;;5042555;28;20234;-68
2022/02/06 11:12:55;;;;;;;113.93;63.10;;;9.40;93.20;;;;;;5048851;28;20551;-68
2022/02/06 11:15:31;;;;;;;113.03;58.87;;;9.50;93.10;;;;;;5057011;28;20223;-68
2022/02/06 11:18:12;;;;;;;115.13;59.90;;;9.50;93.00;;;;;;5040540;28;20202;-68
2022/02/06 11:20:52;;;;;;;111.93;60.90;;;9.60;92.90;;;;;;5051351;28;20707;-68
2022/02/06 11:23:19;;;;;;;98.93;53.60;;;9.60;92.70;;;;;;5045795;28;20209;-69
2022/02/06 11:25:49;;;;;;;96.77;51.53;;;9.50;92.60;;;;;;5034891;28;20219;-69
2022/02/06 11:28:17;;;;;;;100.83;52.03;;;9.50;92.50;;;;;;5041438;28;20217;-69
2022/02/06 11:30:44;;;;;;;101.00;53.80;;;9.40;92.50;;;;;;5042166;28;20588;-69
2022/02/06 11:33:11;;;;;;;104.93;53.00;;;9.40;92.50;;;;;;5040192;28;20198;-69
2022/02/06 11:35:43;;;;;;;97.60;51.30;;;9.40;92.50;;;;;;5038909;28;20219;-69
2022/02/06 11:44:48;;;;;;;91.17;50.67;;;9.40;92.60;;;;;;5059816;28;20199;-69
2022/02/06 11:47:42;;;;;;;94.43;49.33;;;9.50;92.60;;;;;;5035840;28;20206;-69
2022/02/06 11:50:11;;;;;;;89.03;48.13;;;9.40;92.50;;;;;;5034865;28;20237;-69
2022/02/06 11:52:52;;;;;;;87.17;44.17;;;9.40;91.90;;;;;;5037526;28;20346;-69
2022/02/06 11:55:48;;;;;;;83.30;47.50;;;9.30;91.80;;;;;;5049955;28;20232;-69
2022/02/06 11:58:28;;;;;;;98.60;48.00;;;9.20;92.00;;;;;;5039866;28;20203;-67
2022/02/06 12:01:07;;;;;;;96.27;46.57;;;9.10;92.30;;;;;;5040223;28;20213;-66
2022/02/06 12:04:03;;;;;;;82.77;45.03;;;9.00;92.50;;;;;;5043147;28;20209;-66
2022/02/06 12:06:36;;;;;;;78.67;43.73;;;8.90;92.50;;;;;;5028676;28;20211;-66
2022/02/06 12:09:03;;;;;;;84.80;45.47;;;8.90;92.60;;;;;;5038129;28;20208;-66
2022/02/06 12:11:34;;;;;;;98.43;49.47;;;8.80;92.70;;;;;;5035766;28;20211;-66
2022/02/06 12:14:09;;;;;;;101.90;51.00;;;8.80;92.70;;;;;;5041398;28;20209;-66
2022/02/06 12:16:49;;;;;;;95.30;49.23;;;8.80;92.90;;;;;;5040228;28;20238;-66
2022/02/06 12:19:33;;;;;;;96.70;49.83;;;8.90;93.00;;;;;;5043135;28;20230;-66
2022/02/06 12:22:30;;;;;;;96.20;50.23;;;8.90;93.00;;;;;;5042525;28;20249;-66
2022/02/06 12:25:16;;;;;;;95.27;49.37;;;9.00;92.90;;;;;;5044561;28;20215;-67
2022/02/06 12:27:43;;;;;;;88.30;46.53;;;9.10;92.80;;;;;;5043231;28;20285;-66
2022/02/06 12:30:25;;;;;;;92.43;47.43;;;9.10;92.50;;;;;;5049026;28;20203;-66
2022/02/06 12:33:38;;;;;;;90.63;45.70;;;9.00;92.50;;;;;;5059640;28;20221;-66
2022/02/06 12:38:52;;;;;;;92.87;45.87;;;9.10;92.60;;;;;;5047344;28;20482;-66
2022/02/06 12:41:24;;;;;;;89.73;48.53;;;9.10;92.40;;;;;;5047535;28;20199;-67
2022/02/06 12:43:53;;;;;;;92.67;48.53;;;9.10;92.20;;;;;;5044329;28;20650;-67
2022/02/06 12:46:25;;;;;;;93.70;45.13;;;9.10;92.30;;;;;;5049195;28;20210;-66
2022/02/06 12:48:58;;;;;;;98.23;47.73;;;9.00;92.20;;;;;;5047144;28;20321;-66
2022/02/06 12:51:28;;;;;;;93.90;48.17;;;9.00;92.40;;;;;;5050661;28;20202;-67
2022/02/06 12:54:02;;;;;;;98.87;47.17;;;9.10;92.30;;;;;;5046138;28;20579;-67
2022/02/06 12:56:34;;;;;;;103.10;49.13;;;9.00;92.40;;;;;;5043387;28;20205;-66
2022/02/06 12:59:02;;;;;;;91.37;47.57;;;9.10;92.60;;;;;;5020967;28;20216;-66
2022/02/06 13:01:37;;;;;;;97.83;50.30;;;9.10;92.70;;;;;;5041042;28;20617;-66
2022/02/06 13:04:05;;;;;;;95.13;48.53;;;9.20;92.70;;;;;;5045468;28;20277;-67
2022/02/06 13:06:37;;;;;;;87.93;48.43;;;9.20;92.60;;;;;;5044931;28;20550;-67
2022/02/06 13:09:25;;;;;;;85.57;46.43;;;9.30;92.40;;;;;;5045393;28;20199;-66
2022/02/06 13:12:02;;;;;;;81.17;46.97;;;9.30;92.10;;;;;;5044063;28;20302;-66
2022/02/06 13:20:12;;;;;;;94.80;46.80;;;9.20;91.70;;;;;;5044067;28;20202;-66
2022/02/06 13:23:00;;;;;;;91.53;46.77;;;9.20;92.00;;;;;;5049424;28;20238;-67
2022/02/06 13:33:17;;;;;;;80.97;44.07;;;9.30;92.30;;;;;;5044256;28;20233;-66
2022/02/06 13:35:59;;;;;;;79.80;43.77;;;9.30;92.00;;;;;;5037493;28;20548;-66
2022/02/06 13:38:32;;;;;;;77.50;42.07;;;9.30;92.00;;;;;;5039209;28;20210;-67
2022/02/06 13:41:01;;;;;;;83.90;44.63;;;9.30;91.90;;;;;;5044442;28;20217;-67
2022/02/06 13:43:39;;;;;;;75.47;43.60;;;9.30;91.70;;;;;;5039258;28;20207;-67
2022/02/06 13:46:18;;;;;;;82.67;42.27;;;9.30;91.80;;;;;;5036594;28;20219;-67
2022/02/06 13:48:47;;;;;;;83.60;44.33;;;9.40;92.00;;;;;;5041253;28;20542;-66
2022/02/06 13:51:14;;;;;;;90.90;46.03;;;9.40;92.00;;;;;;5042773;28;20210;-66
2022/02/06 13:53:55;;;;;;;85.47;46.33;;;9.50;92.00;;;;;;5063439;28;20215;-66
2022/02/06 13:56:23;;;;;;;81.50;43.23;;;9.60;92.00;;;;;;5041429;28;20666;-66
2022/02/06 13:58:57;;;;;;;83.17;44.60;;;9.60;91.80;;;;;;5041528;28;20294;-66
2022/02/06 14:01:35;;;;;;;80.93;43.33;;;9.70;91.70;;;;;;5041240;28;20194;-67
2022/02/06 14:04:05;;;;;;;78.30;41.97;;;9.70;91.60;;;;;;5045829;28;20594;-66
2022/02/06 14:06:42;;;;;;;75.93;40.67;;;9.80;91.60;;;;;;5040292;28;20203;-67
2022/02/06 14:09:26;;;;;;;78.67;41.53;;;9.80;91.70;;;;;;5046779;28;20223;-66
2022/02/06 14:12:00;;;;;;;85.37;45.50;;;9.90;91.30;;;;;;5036199;28;20643;-66
2022/02/06 14:14:28;;;;;;;95.97;48.40;;;9.90;91.20;;;;;;5036504;28;20206;-66
2022/02/06 14:17:23;;;;;;;80.77;44.47;;;9.90;91.10;;;;;;5044315;28;20287;-67
2022/02/06 14:19:52;;;;;;;85.20;42.40;;;9.90;91.00;;;;;;5036794;28;20234;-67
2022/02/06 14:22:29;;;;;;;76.83;41.77;;;9.90;91.00;;;;;;5039022;28;20235;-66
2022/02/06 14:24:57;;;;;;;76.13;40.50;;;9.90;91.00;;;;;;5042526;28;20202;-66
2022/02/06 14:27:36;;;;;;;78.23;42.43;;;9.90;90.90;;;;;;5051173;28;20223;-66
2022/02/06 14:30:15;;;;;;;72.43;40.37;;;9.90;90.80;;;;;;5046988;28;20206;-66
2022/02/06 14:33:00;;;;;;;76.53;41.97;;;9.90;90.80;;;;;;5040226;28;20210;-66
2022/02/06 14:35:47;;;;;;;77.40;40.53;;;9.90;90.70;;;;;;5044304;28;20217;-66
2022/02/06 14:38:44;;;;;;;81.00;43.33;;;9.80;90.70;;;;;;5034468;28;20623;-66
2022/02/06 14:41:40;;;;;;;71.43;40.70;;;9.80;90.80;;;;;;5038296;28;20591;-66
2022/02/06 14:44:08;;;;;;;76.63;40.23;;;9.80;90.90;;;;;;5034886;28;20214;-67
2022/02/06 14:46:36;;;;;;;65.03;36.90;;;9.80;90.80;;;;;;5047452;28;20320;-66
2022/02/06 14:49:07;;;;;;;76.40;41.20;;;9.80;90.80;;;;;;5041022;28;20642;-66
2022/02/06 14:51:37;;;;;;;69.93;38.10;;;9.80;90.80;;;;;;5039567;28;20194;-66
2022/02/06 14:54:07;;;;;;;74.77;38.67;;;9.80;90.80;;;;;;5039518;28;20546;-66
2022/02/06 14:56:36;;;;;;;74.60;39.70;;;9.80;90.50;;;;;;5042855;28;20214;-66
2022/02/06 14:59:03;;;;;;;81.50;42.47;;;9.70;90.50;;;;;;5043693;28;20198;-66
2022/02/06 15:01:31;;;;;;;73.60;39.93;;;9.70;90.50;;;;;;5050295;28;20198;-66
2022/02/06 15:03:58;;;;;;;79.27;41.10;;;9.70;90.60;;;;;;5041160;28;20612;-66
2022/02/06 15:06:25;;;;;;;76.27;40.30;;;9.70;90.70;;;;;;5041268;28;20215;-67
2022/02/06 15:08:53;;;;;;;71.27;41.17;;;9.60;90.60;;;;;;5035614;28;20220;-67
2022/02/06 15:11:20;;;;;;;84.33;39.27;;;9.60;90.60;;;;;;5043795;28;20514;-67
2022/02/06 15:13:47;;;;;;;74.57;37.80;;;9.60;90.80;;;;;;5042740;28;20210;-67
2022/02/06 15:16:19;;;;;;;74.43;37.03;;;9.50;90.80;;;;;;5043508;28;20214;-66
2022/02/06 15:19:32;;;;;;;77.37;39.53;;;9.50;90.90;;;;;;5033757;28;20663;-66
2022/02/06 15:21:34;;;;;;;71.57;38.03;;;9.40;90.80;;;;;;5045716;28;20251;-67
2022/02/06 15:24:01;;;;;;;67.10;38.30;;;9.40;90.90;;;;;;5051007;28;20218;-67
2022/02/06 15:26:28;;;;;;;75.00;40.43;;;9.30;91.00;;;;;;5044745;28;20218;-66
2022/02/06 15:28:55;;;;;;;68.27;36.63;;;9.30;91.10;;;;;;5045383;28;20213;-67
2022/02/06 15:31:22;;;;;;;73.83;37.73;;;9.30;91.10;;;;;;5048329;28;20207;-66